Main page
METAR-TAF:

METAR-TAF

Airports :

Guernsey,

Guernsey Airport

latitude: 49-26N, longitude: 002-36W, elevation: 102 m

Current weather observation

The report was made 33 minutes ago, at 17:20 UTC
Wind 6 kt from the West
Temperature 10°C
Humidity 76%
Pressure 1018 hPa
Visibility 10 km or more
Few clouds at a height of 1900 ft

METAR: EGJB 281720Z 28006KT 9999 FEW019 10/06 Q1018

Time: 18:53 (17:53 UTC)

Forecast

The report was made 56 minutes ago, at 16:57 UTC
Forecast valid from 28 at 18 UTC to 29 at 03 UTC
Wind 7 kt from the Northwest
Visibility 10 km or more
Few clouds at a height of 2000 ft
Scattered clouds at a height of 4500 ft

TAF: EGJB 281657Z 2818/2903 31007KT 9999 FEW020 SCT045

Weather observations and forecasts of more than 4000 airports (METAR and TAF reports).

The available stations are represented by yellow and red dots on the map.

Hover mouse over dot to see the name of the station.

Then click to see weather observations and forecasts.

To change the map : click on the green buttons with a black cross to zoom in, on the green button with a dash to zoom out, or on the green arrows for adjacent maps.


METAR-TAF: